Miltonia — SE4709 — position and weather

sailwx.info

Track history (hours):
 
Tides and Currents Weather Stations Pressure Air Temp Water Temp Dewpoint Dewpoint Depression Visibility Wind Speed Wind Dir Waves Ship Positions

Miltonia

Last reported at 2018-Feb-17 21:52 UTC. Time now 2018-Feb-20 17:30 UTC.
Position N 17°41' W 063°20'.

Length 12 m.

Type: Pleasure craft. MMSI: 265704790.

Date/timePositionNaut miles runAvg speedWind from/ knotsBaromVisibWave heightAir tempDewpointWater temp
2018-Feb-17 21:52N 17°41' W 063°20'3 6.8
2018-Feb-17 21:23N 17°40' W 063°17'2 3.0
2018-Feb-17 20:41N 17°39' W 063°15'0 0.0
2018-Feb-17 20:10N 17°39' W 063°15'0 0.0
2018-Feb-17 19:58N 17°39' W 063°15'0 0.0
2018-Feb-17 18:25N 17°39' W 063°15'0 0.0
2018-Feb-17 17:59N 17°39' W 063°15'58 2.1
2018-Feb-16 14:25N 17°11' W 062°22'3 6.7
2018-Feb-16 14:00N 17°11' W 062°19'4 6.5
2018-Feb-16 13:24N 17°10' W 062°15'3 6.3
2018-Feb-16 13:00N 17°09' W 062°13'3 6.8
2018-Feb-16 12:30N 17°08' W 062°09'3 6.6
2018-Feb-16 11:59N 17°07' W 062°06'3 6.6
2018-Feb-16 11:30N 17°06' W 062°03'3 6.6
2018-Feb-16 11:00N 17°05' W 061°59'3 6.2
2018-Feb-16 10:30N 17°05' W 061°56'2 4.1
2018-Feb-16 10:00N 17°05' W 061°54'1 0.0
2018-Feb-14 15:37N 17°04' W 061°53'0 0.0
2018-Feb-14 15:28N 17°04' W 061°53'0 0.0
2018-Feb-13 22:03N 17°04' W 061°53'0 0.0
2018-Feb-13 22:00N 17°04' W 061°53'0 0.0
2018-Feb-13 21:30N 17°04' W 061°53'0 0.0
2018-Feb-13 21:00N 17°04' W 061°53'  
Track history (hours):
 
Tides and Currents Weather Stations Pressure Air Temp Water Temp Dewpoint Dewpoint Depression Visibility Wind Speed Wind Dir Waves Ship Positions

Miltonia

Last reported at 2018-Feb-17 21:52 UTC. Time now 2018-Feb-20 17:30 UTC.
Position N 17°41' W 063°20'.

Length 12 m.

Type: Pleasure craft. MMSI: 265704790.

Date/timePositionNaut miles runAvg speedWind from/ knotsBaromVisibWave heightAir tempDewpointWater temp
2018-Feb-17 21:52N 17°41' W 063°20'3 6.8
2018-Feb-17 21:23N 17°40' W 063°17'2 3.0
2018-Feb-17 20:41N 17°39' W 063°15'0 0.0
2018-Feb-17 20:10N 17°39' W 063°15'0 0.0
2018-Feb-17 19:58N 17°39' W 063°15'0 0.0
2018-Feb-17 18:25N 17°39' W 063°15'0 0.0
2018-Feb-17 17:59N 17°39' W 063°15'58 2.1
2018-Feb-16 14:25N 17°11' W 062°22'3 6.7
2018-Feb-16 14:00N 17°11' W 062°19'4 6.5
2018-Feb-16 13:24N 17°10' W 062°15'3 6.3
2018-Feb-16 13:00N 17°09' W 062°13'3 6.8
2018-Feb-16 12:30N 17°08' W 062°09'3 6.6
2018-Feb-16 11:59N 17°07' W 062°06'3 6.6
2018-Feb-16 11:30N 17°06' W 062°03'3 6.6
2018-Feb-16 11:00N 17°05' W 061°59'3 6.2
2018-Feb-16 10:30N 17°05' W 061°56'2 4.1
2018-Feb-16 10:00N 17°05' W 061°54'1 0.0
2018-Feb-14 15:37N 17°04' W 061°53'0 0.0
2018-Feb-14 15:28N 17°04' W 061°53'0 0.0
2018-Feb-13 22:03N 17°04' W 061°53'0 0.0
2018-Feb-13 22:00N 17°04' W 061°53'0 0.0
2018-Feb-13 21:30N 17°04' W 061°53'0 0.0
2018-Feb-13 21:00N 17°04' W 061°53'  

Dump ship's entire track history